sensor_id;sensor_type;location;lat;lon;timestamp;pressure;altitude;pressure_sealevel;temperature;humidity
74893;BME280;63446;56.272;43.922;2024-03-08T00:00:16;100409.72;;;-0.06;45.75
74893;BME280;63446;56.272;43.922;2024-03-08T00:02:45;100408.31;;;-0.02;45.89
74893;BME280;63446;56.272;43.922;2024-03-08T00:05:12;100402.50;;;0.03;45.97
74893;BME280;63446;56.272;43.922;2024-03-08T00:07:39;100407.13;;;0.08;45.93
74893;BME280;63446;56.272;43.922;2024-03-08T00:10:08;100399.94;;;0.10;45.99
74893;BME280;63446;56.272;43.922;2024-03-08T00:12:41;100389.31;;;0.11;45.94
74893;BME280;63446;56.272;43.922;2024-03-08T00:15:11;100385.34;;;0.15;45.93
74893;BME280;63446;56.272;43.922;2024-03-08T00:17:44;100396.56;;;0.16;45.93
74893;BME280;63446;56.272;43.922;2024-03-08T00:20:10;100385.34;;;0.15;46.06
74893;BME280;63446;56.272;43.922;2024-03-08T00:22:40;100392.34;;;0.15;46.04
74893;BME280;63446;56.272;43.922;2024-03-08T00:25:07;100388.94;;;0.14;46.17
74893;BME280;63446;56.272;43.922;2024-03-08T00:27:36;100376.16;;;0.13;46.27
74893;BME280;63446;56.272;43.922;2024-03-08T00:30:04;100389.72;;;0.15;46.31
74893;BME280;63446;56.272;43.922;2024-03-08T00:32:31;100369.16;;;0.13;46.17
74893;BME280;63446;56.272;43.922;2024-03-08T00:34:58;100380.13;;;0.15;46.30
74893;BME280;63446;56.272;43.922;2024-03-08T00:37:24;100371.97;;;0.12;46.28
74893;BME280;63446;56.272;43.922;2024-03-08T00:39:51;100373.75;;;0.18;46.37
74893;BME280;63446;56.272;43.922;2024-03-08T00:42:19;100364.94;;;0.19;46.48
74893;BME280;63446;56.272;43.922;2024-03-08T00:44:45;100369.16;;;0.20;46.38
74893;BME280;63446;56.272;43.922;2024-03-08T00:47:11;100357.75;;;0.21;46.40
74893;BME280;63446;56.272;43.922;2024-03-08T00:49:37;100349.97;;;0.21;46.42
74893;BME280;63446;56.272;43.922;2024-03-08T00:52:04;100344.16;;;0.19;46.46
74893;BME280;63446;56.272;43.922;2024-03-08T00:54:34;100345.78;;;0.20;46.51
74893;BME280;63446;56.272;43.922;2024-03-08T00:57:02;100343.97;;;0.20;46.54
74893;BME280;63446;56.272;43.922;2024-03-08T00:59:32;100333.19;;;0.17;46.36
74893;BME280;63446;56.272;43.922;2024-03-08T01:01:59;100333.75;;;0.19;46.50
74893;BME280;63446;56.272;43.922;2024-03-08T01:04:28;100331.16;;;0.19;46.66
74893;BME280;63446;56.272;43.922;2024-03-08T01:06:58;100320.19;;;0.17;46.65
74893;BME280;63446;56.272;43.922;2024-03-08T01:09:24;100319.56;;;0.15;46.79
74893;BME280;63446;56.272;43.922;2024-03-08T01:11:52;100312.19;;;0.12;46.90
74893;BME280;63446;56.272;43.922;2024-03-08T01:14:21;100309.78;;;0.10;47.11
74893;BME280;63446;56.272;43.922;2024-03-08T01:16:51;100307.19;;;0.10;47.20
74893;BME280;63446;56.272;43.922;2024-03-08T01:19:17;100313.19;;;0.11;47.39
74893;BME280;63446;56.272;43.922;2024-03-08T01:21:43;100311.19;;;0.13;47.52
74893;BME280;63446;56.272;43.922;2024-03-08T01:24:09;100291.19;;;0.07;47.50
74893;BME280;63446;56.272;43.922;2024-03-08T01:26:35;100308.19;;;0.16;47.38
74893;BME280;63446;56.272;43.922;2024-03-08T01:29:01;100300.97;;;0.18;47.66
74893;BME280;63446;56.272;43.922;2024-03-08T01:31:29;100303.41;;;0.19;47.68
74893;BME280;63446;56.272;43.922;2024-03-08T01:33:57;100299.78;;;0.20;47.63
74893;BME280;63446;56.272;43.922;2024-03-08T01:36:23;100294.78;;;0.19;47.82
74893;BME280;63446;56.272;43.922;2024-03-08T01:38:51;100296.41;;;0.20;47.81
74893;BME280;63446;56.272;43.922;2024-03-08T01:41:17;100286.19;;;0.18;47.81
74893;BME280;63446;56.272;43.922;2024-03-08T01:43:44;100282.78;;;0.18;47.94
74893;BME280;63446;56.272;43.922;2024-03-08T01:46:12;100282.78;;;0.18;48.10
74893;BME280;63446;56.272;43.922;2024-03-08T01:48:41;100280.59;;;0.15;48.05
74893;BME280;63446;56.272;43.922;2024-03-08T01:51:08;100275.38;;;0.15;48.17
74893;BME280;63446;56.272;43.922;2024-03-08T01:53:34;100277.41;;;0.13;48.13
74893;BME280;63446;56.272;43.922;2024-03-08T01:56:01;100272.59;;;0.10;48.17
74893;BME280;63446;56.272;43.922;2024-03-08T01:58:29;100279.78;;;0.14;48.23
74893;BME280;63446;56.272;43.922;2024-03-08T02:00:56;100274.59;;;0.14;48.38
74893;BME280;63446;56.272;43.922;2024-03-08T02:03:24;100268.59;;;0.14;48.29
74893;BME280;63446;56.272;43.922;2024-03-08T02:05:50;100263.81;;;0.11;48.47
74893;BME280;63446;56.272;43.922;2024-03-08T02:08:17;100263.41;;;0.14;48.51
74893;BME280;63446;56.272;43.922;2024-03-08T02:10:46;100249.41;;;0.15;48.55
74893;BME280;63446;56.272;43.922;2024-03-08T02:13:13;100250.00;;;0.17;48.64
74893;BME280;63446;56.272;43.922;2024-03-08T02:18:39;100244.41;;;0.20;48.67
74893;BME280;63446;56.272;43.922;2024-03-08T02:21:06;100241.81;;;0.20;48.59
74893;BME280;63446;56.272;43.922;2024-03-08T02:23:34;100236.41;;;0.21;48.69
74893;BME280;63446;56.272;43.922;2024-03-08T02:26:01;100230.22;;;0.16;48.75
74893;BME280;63446;56.272;43.922;2024-03-08T02:28:27;100233.59;;;0.23;48.82
74893;BME280;63446;56.272;43.922;2024-03-08T02:30:54;100231.19;;;0.21;48.93
74893;BME280;63446;56.272;43.922;2024-03-08T02:33:23;100223.41;;;0.21;48.84
74893;BME280;63446;56.272;43.922;2024-03-08T02:35:49;100219.41;;;0.26;48.97
74893;BME280;63446;56.272;43.922;2024-03-08T02:38:18;100221.81;;;0.27;48.79
74893;BME280;63446;56.272;43.922;2024-03-08T02:40:46;100216.63;;;0.27;48.75
74893;BME280;63446;56.272;43.922;2024-03-08T02:43:16;100208.59;;;0.29;48.89
74893;BME280;63446;56.272;43.922;2024-03-08T02:45:44;100214.59;;;0.29;48.73
74893;BME280;63446;56.272;43.922;2024-03-08T02:48:12;100201.38;;;0.31;48.82
74893;BME280;63446;56.272;43.922;2024-03-08T02:50:38;100190.97;;;0.31;48.88
74893;BME280;63446;56.272;43.922;2024-03-08T02:53:12;100199.16;;;0.34;48.80
74893;BME280;63446;56.272;43.922;2024-03-08T02:55:39;100198.59;;;0.32;48.70
74893;BME280;63446;56.272;43.922;2024-03-08T02:58:08;100194.78;;;0.35;48.79
74893;BME280;63446;56.272;43.922;2024-03-08T03:00:36;100181.78;;;0.35;48.77
74893;BME280;63446;56.272;43.922;2024-03-08T03:03:02;100174.97;;;0.34;48.67
74893;BME280;63446;56.272;43.922;2024-03-08T03:05:29;100180.00;;;0.35;48.67
74893;BME280;63446;56.272;43.922;2024-03-08T03:07:56;100184.59;;;0.33;48.82
74893;BME280;63446;56.272;43.922;2024-03-08T03:10:24;100170.19;;;0.31;48.95
74893;BME280;63446;56.272;43.922;2024-03-08T03:12:50;100166.41;;;0.27;48.89
74893;BME280;63446;56.272;43.922;2024-03-08T03:15:17;100154.63;;;0.24;48.99
74893;BME280;63446;56.272;43.922;2024-03-08T03:17:50;100157.63;;;0.21;49.08
74893;BME280;63446;56.272;43.922;2024-03-08T03:20:19;100155.25;;;0.19;49.14
74893;BME280;63446;56.272;43.922;2024-03-08T03:22:58;100140.88;;;0.17;49.15
74893;BME280;63446;56.272;43.922;2024-03-08T03:25:27;100133.66;;;0.19;49.04
74893;BME280;63446;56.272;43.922;2024-03-08T03:27:59;100137.06;;;0.19;49.23
74893;BME280;63446;56.272;43.922;2024-03-08T03:30:26;100139.84;;;0.18;49.34
74893;BME280;63446;56.272;43.922;2024-03-08T03:32:54;100145.22;;;0.23;49.32
74893;BME280;63446;56.272;43.922;2024-03-08T03:35:22;100139.03;;;0.24;49.18
74893;BME280;63446;56.272;43.922;2024-03-08T03:37:49;100127.63;;;0.25;49.21
74893;BME280;63446;56.272;43.922;2024-03-08T03:40:34;100132.63;;;0.27;49.21
74893;BME280;63446;56.272;43.922;2024-03-08T03:43:01;100133.22;;;0.29;49.31
74893;BME280;63446;56.272;43.922;2024-03-08T03:45:29;100137.41;;;0.30;49.32
74893;BME280;63446;56.272;43.922;2024-03-08T03:47:55;100138.19;;;0.30;49.43
74893;BME280;63446;56.272;43.922;2024-03-08T03:50:22;100134.81;;;0.30;49.52
74893;BME280;63446;56.272;43.922;2024-03-08T03:52:52;100128.44;;;0.26;49.45
74893;BME280;63446;56.272;43.922;2024-03-08T03:55:17;100133.59;;;0.32;49.47
74893;BME280;63446;56.272;43.922;2024-03-08T03:57:43;100136.59;;;0.36;49.40
74893;BME280;63446;56.272;43.922;2024-03-08T04:00:11;100134.56;;;0.38;49.44
74893;BME280;63446;56.272;43.922;2024-03-08T04:02:41;100135.97;;;0.40;49.27
74893;BME280;63446;56.272;43.922;2024-03-08T04:05:10;100136.56;;;0.42;49.31
74893;BME280;63446;56.272;43.922;2024-03-08T04:07:37;100138.94;;;0.44;49.38
74893;BME280;63446;56.272;43.922;2024-03-08T04:10:06;100134.31;;;0.46;49.43
74893;BME280;63446;56.272;43.922;2024-03-08T04:12:36;100128.94;;;0.47;49.38
74893;BME280;63446;56.272;43.922;2024-03-08T04:15:03;100133.72;;;0.51;49.43
74893;BME280;63446;56.272;43.922;2024-03-08T04:17:33;100116.91;;;0.53;49.45
74893;BME280;63446;56.272;43.922;2024-03-08T04:20:03;100123.50;;;0.56;49.37
74893;BME280;63446;56.272;43.922;2024-03-08T04:22:36;100119.09;;;0.56;49.38
74893;BME280;63446;56.272;43.922;2024-03-08T04:25:03;100111.66;;;0.60;49.41
74893;BME280;63446;56.272;43.922;2024-03-08T04:27:29;100111.25;;;0.63;49.40
74893;BME280;63446;56.272;43.922;2024-03-08T04:29:56;100107.81;;;0.69;49.39
74893;BME280;63446;56.272;43.922;2024-03-08T04:32:22;100112.78;;;0.77;49.38
74893;BME280;63446;56.272;43.922;2024-03-08T04:34:48;100112.72;;;0.84;49.35
74893;BME280;63446;56.272;43.922;2024-03-08T04:37:15;100114.25;;;0.91;49.20
74893;BME280;63446;56.272;43.922;2024-03-08T04:39:47;100110.22;;;0.95;49.18
74893;BME280;63446;56.272;43.922;2024-03-08T04:42:13;100106.41;;;0.98;49.31
74893;BME280;63446;56.272;43.922;2024-03-08T04:44:40;100102.41;;;0.95;49.26
74893;BME280;63446;56.272;43.922;2024-03-08T04:47:06;100104.66;;;0.92;49.40
74893;BME280;63446;56.272;43.922;2024-03-08T04:49:35;100101.66;;;0.88;49.75
74893;BME280;63446;56.272;43.922;2024-03-08T04:52:04;100101.09;;;0.86;50.13
74893;BME280;63446;56.272;43.922;2024-03-08T04:54:31;100102.13;;;0.85;50.61
74893;BME280;63446;56.272;43.922;2024-03-08T04:56:57;100095.91;;;0.86;50.71
74893;BME280;63446;56.272;43.922;2024-03-08T04:59:24;100097.28;;;0.89;51.19
74893;BME280;63446;56.272;43.922;2024-03-08T05:01:50;100095.25;;;0.91;51.37
74893;BME280;63446;56.272;43.922;2024-03-08T05:04:16;100088.25;;;0.91;51.63
74893;BME280;63446;56.272;43.922;2024-03-08T05:06:42;100089.03;;;0.92;51.73
74893;BME280;63446;56.272;43.922;2024-03-08T05:09:08;100083.03;;;0.91;51.92
74893;BME280;63446;56.272;43.922;2024-03-08T05:11:44;100091.22;;;0.95;52.01
74893;BME280;63446;56.272;43.922;2024-03-08T05:14:11;100089.22;;;0.97;52.00
74893;BME280;63446;56.272;43.922;2024-03-08T05:16:43;100089.38;;;1.02;51.96
74893;BME280;63446;56.272;43.922;2024-03-08T05:19:09;100085.94;;;1.08;51.92
74893;BME280;63446;56.272;43.922;2024-03-08T05:21:34;100095.47;;;1.14;51.87
74893;BME280;63446;56.272;43.922;2024-03-08T05:24:00;100086.59;;;1.22;51.92
74893;BME280;63446;56.272;43.922;2024-03-08T05:26:26;100085.75;;;1.28;51.95
74893;BME280;63446;56.272;43.922;2024-03-08T05:28:52;100087.47;;;1.34;51.79
74893;BME280;63446;56.272;43.922;2024-03-08T05:31:21;100087.66;;;1.39;51.71
74893;BME280;63446;56.272;43.922;2024-03-08T05:33:50;100086.41;;;1.42;51.95
74893;BME280;63446;56.272;43.922;2024-03-08T05:36:16;100090.78;;;1.48;52.00
74893;BME280;63446;56.272;43.922;2024-03-08T05:38:43;100084.72;;;1.54;52.11
74893;BME280;63446;56.272;43.922;2024-03-08T05:41:09;100088.25;;;1.60;52.07
74893;BME280;63446;56.272;43.922;2024-03-08T05:43:36;100085.59;;;1.66;52.53
74893;BME280;63446;56.272;43.922;2024-03-08T05:46:01;100078.88;;;1.77;52.32
74893;BME280;63446;56.272;43.922;2024-03-08T05:51:57;100064.22;;;2.13;51.98
74893;BME280;63446;56.272;43.922;2024-03-08T05:54:26;100073.00;;;2.30;51.99
74893;BME280;63446;56.272;43.922;2024-03-08T05:56:53;100070.13;;;2.50;51.82
74893;BME280;63446;56.272;43.922;2024-03-08T05:59:20;100080.06;;;2.72;51.80
74893;BME280;63446;56.272;43.922;2024-03-08T06:01:46;100078.16;;;2.90;51.83
74893;BME280;63446;56.272;43.922;2024-03-08T06:04:12;100072.06;;;3.08;51.63
74893;BME280;63446;56.272;43.922;2024-03-08T06:06:39;100073.31;;;3.29;51.35
74893;BME280;63446;56.272;43.922;2024-03-08T06:09:06;100082.28;;;3.45;51.18
74893;BME280;63446;56.272;43.922;2024-03-08T06:11:37;100074.66;;;3.55;50.88
74893;BME280;63446;56.272;43.922;2024-03-08T06:14:03;100066.72;;;3.62;50.94
74893;BME280;63446;56.272;43.922;2024-03-08T06:16:29;100067.38;;;3.69;50.72
74893;BME280;63446;56.272;43.922;2024-03-08T06:18:56;100062.59;;;3.78;50.65
74893;BME280;63446;56.272;43.922;2024-03-08T06:21:24;100059.03;;;3.84;50.56
74893;BME280;63446;56.272;43.922;2024-03-08T06:23:55;100063.59;;;3.88;50.35
74893;BME280;63446;56.272;43.922;2024-03-08T06:26:22;100067.00;;;3.89;50.14
74893;BME280;63446;56.272;43.922;2024-03-08T06:28:48;100065.09;;;3.84;50.12
74893;BME280;63446;56.272;43.922;2024-03-08T06:31:14;100063.59;;;3.88;50.07
74893;BME280;63446;56.272;43.922;2024-03-08T06:33:40;100067.53;;;3.91;49.79
74893;BME280;63446;56.272;43.922;2024-03-08T06:36:06;100056.63;;;3.94;49.67
74893;BME280;63446;56.272;43.922;2024-03-08T06:38:32;100058.00;;;3.97;49.44
74893;BME280;63446;56.272;43.922;2024-03-08T06:40:59;100065.59;;;3.98;49.13
74893;BME280;63446;56.272;43.922;2024-03-08T06:43:26;100061.41;;;3.97;49.03
74893;BME280;63446;56.272;43.922;2024-03-08T06:45:58;100058.00;;;3.97;48.96
74893;BME280;63446;56.272;43.922;2024-03-08T06:48:24;100063.06;;;4.03;48.79
74893;BME280;63446;56.272;43.922;2024-03-08T06:50:50;100067.63;;;4.08;48.54
74893;BME280;63446;56.272;43.922;2024-03-08T06:53:16;100057.97;;;4.08;48.34
74893;BME280;63446;56.272;43.922;2024-03-08T06:55:45;100053.84;;;4.12;48.26
74893;BME280;63446;56.272;43.922;2024-03-08T06:58:10;100053.00;;;4.24;47.96
74893;BME280;63446;56.272;43.922;2024-03-08T07:00:38;100055.31;;;4.37;47.64
74893;BME280;63446;56.272;43.922;2024-03-08T07:03:07;100054.25;;;4.50;47.51
74893;BME280;63446;56.272;43.922;2024-03-08T07:05:33;100051.78;;;4.60;47.29
74893;BME280;63446;56.272;43.922;2024-03-08T07:08:00;100047.78;;;4.69;47.13
74893;BME280;63446;56.272;43.922;2024-03-08T07:10:26;100050.00;;;4.77;46.91
74893;BME280;63446;56.272;43.922;2024-03-08T07:12:54;100034.38;;;4.82;46.74
74893;BME280;63446;56.272;43.922;2024-03-08T07:15:21;100042.72;;;4.96;46.46
74893;BME280;63446;56.272;43.922;2024-03-08T07:17:49;100040.78;;;5.08;46.20
74893;BME280;63446;56.272;43.922;2024-03-08T07:20:15;100046.16;;;5.19;46.07
74893;BME280;63446;56.272;43.922;2024-03-08T07:22:45;100042.72;;;5.35;45.76
74893;BME280;63446;56.272;43.922;2024-03-08T07:25:17;100038.47;;;5.51;45.54
74893;BME280;63446;56.272;43.922;2024-03-08T07:27:51;100039.94;;;5.63;45.19
74893;BME280;63446;56.272;43.922;2024-03-08T07:30:22;100045.56;;;5.72;44.93
74893;BME280;63446;56.272;43.922;2024-03-08T07:33:07;100042.13;;;5.72;44.74
74893;BME280;63446;56.272;43.922;2024-03-08T07:35:33;100040.25;;;5.67;44.76
74893;BME280;63446;56.272;43.922;2024-03-08T07:38:11;100041.28;;;5.66;44.64
74893;BME280;63446;56.272;43.922;2024-03-08T07:40:39;100034.97;;;5.62;44.65
74893;BME280;63446;56.272;43.922;2024-03-08T07:43:07;100044.41;;;5.63;44.45
74893;BME280;63446;56.272;43.922;2024-03-08T07:45:33;100026.00;;;5.58;44.30
74893;BME280;63446;56.272;43.922;2024-03-08T07:47:59;100032.38;;;5.67;44.06
74893;BME280;63446;56.272;43.922;2024-03-08T07:50:25;100028.53;;;5.75;44.12
74893;BME280;63446;56.272;43.922;2024-03-08T07:52:50;100033.66;;;5.86;43.90
74893;BME280;63446;56.272;43.922;2024-03-08T07:55:16;100030.97;;;6.03;43.71
74893;BME280;63446;56.272;43.922;2024-03-08T07:57:42;100028.28;;;6.20;43.32
74893;BME280;63446;56.272;43.922;2024-03-08T08:00:09;100018.47;;;6.38;43.04
74893;BME280;63446;56.272;43.922;2024-03-08T08:02:36;100009.66;;;6.49;42.71
74893;BME280;63446;56.272;43.922;2024-03-08T08:05:02;100007.69;;;6.66;42.55
74893;BME280;63446;56.272;43.922;2024-03-08T08:07:30;100005.75;;;6.89;42.28
74893;BME280;63446;56.272;43.922;2024-03-08T08:09:56;100000.63;;;7.09;41.97
74893;BME280;63446;56.272;43.922;2024-03-08T08:12:22;99995.19;;;7.26;41.78
74893;BME280;63446;56.272;43.922;2024-03-08T08:14:47;100000.25;;;7.38;41.55
74893;BME280;63446;56.272;43.922;2024-03-08T08:17:13;99996.59;;;7.44;41.44
74893;BME280;63446;56.272;43.922;2024-03-08T08:19:40;100000.81;;;7.45;41.20
74893;BME280;63446;56.272;43.922;2024-03-08T08:22:06;100001.06;;;7.43;41.25
74893;BME280;63446;56.272;43.922;2024-03-08T08:24:34;99998.16;;;7.40;41.14
74893;BME280;63446;56.272;43.922;2024-03-08T08:27:03;99995.81;;;7.38;41.16
74893;BME280;63446;56.272;43.922;2024-03-08T08:29:29;100005.50;;;7.32;41.33
74893;BME280;63446;56.272;43.922;2024-03-08T08:31:58;100000.72;;;7.29;41.29
74893;BME280;63446;56.272;43.922;2024-03-08T08:34:25;99995.25;;;7.31;41.22
74893;BME280;63446;56.272;43.922;2024-03-08T08:36:53;100002.59;;;7.34;41.12
74893;BME280;63446;56.272;43.922;2024-03-08T08:39:19;99998.94;;;7.35;41.05
74893;BME280;63446;56.272;43.922;2024-03-08T08:41:44;99996.31;;;7.35;41.16
74893;BME280;63446;56.272;43.922;2024-03-08T08:44:11;99996.03;;;7.31;41.16
74893;BME280;63446;56.272;43.922;2024-03-08T08:46:39;99987.59;;;7.29;41.29
74893;BME280;63446;56.272;43.922;2024-03-08T08:49:05;99981.81;;;7.27;41.17
74893;BME280;63446;56.272;43.922;2024-03-08T08:51:32;99988.34;;;7.25;41.20
74893;BME280;63446;56.272;43.922;2024-03-08T08:54:00;99988.63;;;7.23;41.20
74893;BME280;63446;56.272;43.922;2024-03-08T08:56:26;99984.16;;;7.24;41.28
74893;BME280;63446;56.272;43.922;2024-03-08T08:58:55;99981.50;;;7.19;41.25
74893;BME280;63446;56.272;43.922;2024-03-08T09:01:21;99981.72;;;7.12;41.34
74893;BME280;63446;56.272;43.922;2024-03-08T09:03:46;99986.94;;;7.07;41.28
74893;BME280;63446;56.272;43.922;2024-03-08T09:06:13;99984.84;;;7.04;41.48
74893;BME280;63446;56.272;43.922;2024-03-08T09:08:39;99981.16;;;7.05;41.55
74893;BME280;63446;56.272;43.922;2024-03-08T09:11:05;99974.63;;;7.07;41.43
74893;BME280;63446;56.272;43.922;2024-03-08T09:13:32;99974.41;;;7.19;41.28
74893;BME280;63446;56.272;43.922;2024-03-08T09:16:00;99979.69;;;7.24;41.22
74893;BME280;63446;56.272;43.922;2024-03-08T09:18:26;99979.97;;;7.28;41.18
74893;BME280;63446;56.272;43.922;2024-03-08T09:20:52;99978.91;;;7.29;41.23
74893;BME280;63446;56.272;43.922;2024-03-08T09:23:20;99976.78;;;7.26;41.26
74893;BME280;63446;56.272;43.922;2024-03-08T09:25:46;99973.63;;;7.19;41.32
74893;BME280;63446;56.272;43.922;2024-03-08T09:28:12;99971.22;;;7.12;41.34
74893;BME280;63446;56.272;43.922;2024-03-08T09:30:38;99977.47;;;7.06;41.45
74893;BME280;63446;56.272;43.922;2024-03-08T09:33:05;99981.94;;;7.00;41.45
74893;BME280;63446;56.272;43.922;2024-03-08T09:35:31;99979.22;;;6.90;41.60
74893;BME280;63446;56.272;43.922;2024-03-08T09:37:57;99983.91;;;6.83;41.70
74893;BME280;63446;56.272;43.922;2024-03-08T09:40:23;99980.19;;;6.79;41.92
74893;BME280;63446;56.272;43.922;2024-03-08T09:42:51;99981.25;;;6.78;42.01
74893;BME280;63446;56.272;43.922;2024-03-08T09:45:20;99983.09;;;6.77;42.02
74893;BME280;63446;56.272;43.922;2024-03-08T09:47:50;99976.25;;;6.76;41.98
74893;BME280;63446;56.272;43.922;2024-03-08T09:50:18;99979.69;;;6.77;41.91
74893;BME280;63446;56.272;43.922;2024-03-08T09:52:49;99978.06;;;6.71;41.87
74893;BME280;63446;56.272;43.922;2024-03-08T09:55:16;99980.38;;;6.67;41.88
74893;BME280;63446;56.272;43.922;2024-03-08T09:57:44;99975.13;;;6.67;41.98
74893;BME280;63446;56.272;43.922;2024-03-08T10:00:33;99978.03;;;6.66;42.03
74893;BME280;63446;56.272;43.922;2024-03-08T10:03:02;99976.69;;;6.63;42.08
74893;BME280;63446;56.272;43.922;2024-03-08T10:05:30;99972.97;;;6.59;42.25
74893;BME280;63446;56.272;43.922;2024-03-08T10:07:58;99978.50;;;6.57;42.29
74893;BME280;63446;56.272;43.922;2024-03-08T10:10:24;99981.13;;;6.57;42.36
74893;BME280;63446;56.272;43.922;2024-03-08T10:12:49;99980.03;;;6.53;42.29
74893;BME280;63446;56.272;43.922;2024-03-08T10:15:17;99975.28;;;6.50;42.24
74893;BME280;63446;56.272;43.922;2024-03-08T10:17:43;99989.41;;;6.44;42.45
74893;BME280;63446;56.272;43.922;2024-03-08T10:20:17;99978.06;;;6.39;42.56
74893;BME280;63446;56.272;43.922;2024-03-08T10:22:43;99983.81;;;6.35;42.59
74893;BME280;63446;56.272;43.922;2024-03-08T10:25:10;99972.75;;;6.33;42.59
74893;BME280;63446;56.272;43.922;2024-03-08T10:27:39;99978.56;;;6.35;42.69
74893;BME280;63446;56.272;43.922;2024-03-08T10:30:10;99969.13;;;6.34;42.65
74893;BME280;63446;56.272;43.922;2024-03-08T10:32:38;99978.56;;;6.35;42.63
74893;BME280;63446;56.272;43.922;2024-03-08T10:35:08;99978.00;;;6.33;42.81
74893;BME280;63446;56.272;43.922;2024-03-08T10:37:54;99965.41;;;6.30;42.92
74893;BME280;63446;56.272;43.922;2024-03-08T10:40:29;99975.91;;;6.30;43.02
74893;BME280;63446;56.272;43.922;2024-03-08T10:42:57;99974.53;;;6.23;42.97
74893;BME280;63446;56.272;43.922;2024-03-08T10:45:39;99977.34;;;6.16;43.09
74893;BME280;63446;56.272;43.922;2024-03-08T10:48:28;99982.75;;;6.04;43.28
74893;BME280;63446;56.272;43.922;2024-03-08T10:51:02;99984.22;;;5.95;43.32
74893;BME280;63446;56.272;43.922;2024-03-08T10:53:29;99979.94;;;5.89;43.44
74893;BME280;63446;56.272;43.922;2024-03-08T10:55:58;99986.94;;;5.83;43.64
74893;BME280;63446;56.272;43.922;2024-03-08T10:58:26;99980.38;;;5.81;43.72
74893;BME280;63446;56.272;43.922;2024-03-08T11:00:55;99991.09;;;5.79;43.76
74893;BME280;63446;56.272;43.922;2024-03-08T11:03:43;99989.22;;;5.75;43.84
74893;BME280;63446;56.272;43.922;2024-03-08T11:06:18;99985.25;;;5.72;43.85
74893;BME280;63446;56.272;43.922;2024-03-08T11:08:49;99986.78;;;5.68;43.94
74893;BME280;63446;56.272;43.922;2024-03-08T11:11:26;99984.84;;;5.58;44.01
74893;BME280;63446;56.272;43.922;2024-03-08T11:13:58;99993.66;;;5.52;44.16
74893;BME280;63446;56.272;43.922;2024-03-08T11:18:53;99989.59;;;5.39;44.41
74893;BME280;63446;56.272;43.922;2024-03-08T11:21:20;100000.03;;;5.34;44.73
74893;BME280;63446;56.272;43.922;2024-03-08T11:24:10;99998.59;;;5.27;44.76
74893;BME280;63446;56.272;43.922;2024-03-08T11:26:37;99987.72;;;5.18;44.96
74893;BME280;63446;56.272;43.922;2024-03-08T11:32:14;99995.06;;;5.16;45.13
74893;BME280;63446;56.272;43.922;2024-03-08T11:34:46;99996.88;;;5.16;45.26
74893;BME280;63446;56.272;43.922;2024-03-08T11:37:14;99991.09;;;5.13;45.32
74893;BME280;63446;56.272;43.922;2024-03-08T11:39:48;99994.97;;;5.11;45.52
74893;BME280;63446;56.272;43.922;2024-03-08T11:42:18;99999.91;;;5.07;45.57
74893;BME280;63446;56.272;43.922;2024-03-08T11:44:46;99999.34;;;5.05;45.60
74893;BME280;63446;56.272;43.922;2024-03-08T11:47:14;99993.31;;;5.05;45.45
74893;BME280;63446;56.272;43.922;2024-03-08T11:49:41;99985.94;;;5.02;45.79
74893;BME280;63446;56.272;43.922;2024-03-08T11:52:11;99987.53;;;5.03;45.86
74893;BME280;63446;56.272;43.922;2024-03-08T11:54:41;99986.50;;;5.04;45.90
74893;BME280;63446;56.272;43.922;2024-03-08T11:57:06;99985.16;;;5.01;45.98
74893;BME280;63446;56.272;43.922;2024-03-08T11:59:32;99985.41;;;5.00;46.16
74893;BME280;63446;56.272;43.922;2024-03-08T12:02:03;99984.06;;;4.97;46.31
74893;BME280;63446;56.272;43.922;2024-03-08T12:04:30;99984.06;;;4.97;46.53
74893;BME280;63446;56.272;43.922;2024-03-08T12:06:59;99991.34;;;4.95;46.65
74893;BME280;63446;56.272;43.922;2024-03-08T12:09:28;99984.53;;;4.94;46.80
74893;BME280;63446;56.272;43.922;2024-03-08T12:11:54;99986.34;;;4.94;46.96
74893;BME280;63446;56.272;43.922;2024-03-08T12:14:20;99989.75;;;4.94;47.19
74893;BME280;63446;56.272;43.922;2024-03-08T12:16:50;99994.47;;;4.92;47.27
74893;BME280;63446;56.272;43.922;2024-03-08T12:19:16;99991.53;;;4.88;47.19
74893;BME280;63446;56.272;43.922;2024-03-08T12:21:42;99998.03;;;4.86;47.43
74893;BME280;63446;56.272;43.922;2024-03-08T12:24:16;99990.09;;;4.81;47.40
74893;BME280;63446;56.272;43.922;2024-03-08T12:26:46;99990.31;;;4.79;47.50
74893;BME280;63446;56.272;43.922;2024-03-08T12:29:26;99990.31;;;4.79;47.52
74893;BME280;63446;56.272;43.922;2024-03-08T12:31:55;99987.16;;;4.77;47.52
74893;BME280;63446;56.272;43.922;2024-03-08T12:38:04;99985.97;;;4.68;47.42
74893;BME280;63446;56.272;43.922;2024-03-08T12:40:32;99980.19;;;4.66;47.48
74893;BME280;63446;56.272;43.922;2024-03-08T12:43:01;99985.66;;;4.64;47.67
74893;BME280;63446;56.272;43.922;2024-03-08T12:45:27;99987.47;;;4.64;47.79
74893;BME280;63446;56.272;43.922;2024-03-08T12:47:54;99964.66;;;4.59;47.76
74893;BME280;63446;56.272;43.922;2024-03-08T12:50:23;99980.72;;;4.68;47.88
74893;BME280;63446;56.272;43.922;2024-03-08T12:52:52;99977.66;;;4.71;47.86
74893;BME280;63446;56.272;43.922;2024-03-08T12:55:18;99978.22;;;4.73;47.91
74893;BME280;63446;56.272;43.922;2024-03-08T12:57:44;99981.84;;;4.72;47.89
74893;BME280;63446;56.272;43.922;2024-03-08T13:00:11;99975.81;;;4.72;48.04
74893;BME280;63446;56.272;43.922;2024-03-08T13:02:48;99984.72;;;4.71;47.97
74893;BME280;63446;56.272;43.922;2024-03-08T13:05:15;99985.97;;;4.68;48.05
74893;BME280;63446;56.272;43.922;2024-03-08T13:07:41;99982.25;;;4.64;48.18
74893;BME280;63446;56.272;43.922;2024-03-08T13:10:13;99976.94;;;4.59;48.30
74893;BME280;63446;56.272;43.922;2024-03-08T13:12:44;99979.25;;;4.55;48.33